Time;durP1;ratioP1;P1;durP2;ratioP2;P2;SDS_P1;SDS_P2;PMS_P1;PMS_P2;Temp;Humidity;BMP_temperature;BMP_pressure;BME280_temperature;BME280_humidity;BME280_pressure;Samples;Min_cycle;Max_cycle;Signal;HPM_P1;HPM_P2
2023/05/31 00:01:30;;;;;;;6.38;4.13;;;;;;;14.52;76.52;94859.09;5019531;28;20056;-70
2023/05/31 00:03:56;;;;;;;5.00;4.30;;;;;;;14.32;77.39;94852.34;5028865;28;20523;-70
2023/05/31 00:06:21;;;;;;;4.72;4.13;;;;;;;14.28;77.90;94862.25;5035003;28;20037;-70
2023/05/31 00:08:46;;;;;;;6.68;4.55;;;;;;;14.20;78.60;94859.56;5046819;28;20414;-70
2023/05/31 00:11:12;;;;;;;6.10;4.40;;;;;;;14.46;77.34;94846.59;5035601;28;20427;-70
2023/05/31 00:13:40;;;;;;;5.65;4.40;;;;;;;14.51;76.68;94851.34;5034025;28;20415;-70
2023/05/31 00:16:09;;;;;;;5.97;4.10;;;;;;;14.55;76.72;94852.75;5036219;28;20037;-70
2023/05/31 00:18:34;;;;;;;8.07;4.40;;;;;;;14.51;76.79;94853.97;5035701;28;20029;-70
2023/05/31 00:21:00;;;;;;;6.13;4.10;;;;;;;14.46;77.08;94864.06;5038946;28;20030;-70
2023/05/31 00:23:25;;;;;;;5.32;3.85;;;;;;;14.58;76.97;94855.03;5023868;28;20102;-71
2023/05/31 00:25:51;;;;;;;7.80;4.70;;;;;;;14.44;77.30;94855.56;5052243;28;20042;-70
2023/05/31 00:28:16;;;;;;;6.53;4.10;;;;;;;14.46;77.14;94859.66;5033106;28;20033;-70
2023/05/31 00:30:43;;;;;;;6.43;4.55;;;;;;;14.48;77.28;94851.66;5034892;28;20037;-70
2023/05/31 00:33:09;;;;;;;4.40;3.95;;;;;;;14.39;77.49;94857.78;5015720;28;20033;-70
2023/05/31 00:35:34;;;;;;;6.38;4.10;;;;;;;14.45;77.61;94859.78;4999324;28;20411;-70
2023/05/31 00:38:03;;;;;;;6.30;4.05;;;;;;;14.40;77.72;94851.56;5017502;28;20041;-70
2023/05/31 00:40:29;;;;;;;4.88;4.30;;;;;;;14.44;77.61;94861.59;5049871;28;20044;-70
2023/05/31 00:42:54;;;;;;;5.68;4.38;;;;;;;14.64;77.48;94864.91;5032201;28;20037;-70
2023/05/31 00:45:20;;;;;;;5.80;4.22;;;;;;;14.50;77.29;94857.56;5033111;28;20034;-71
2023/05/31 00:47:45;;;;;;;7.90;4.43;;;;;;;14.51;77.34;94861.81;5031734;28;20029;-70
2023/05/31 00:50:11;;;;;;;7.15;4.50;;;;;;;14.46;77.23;94866.69;5024714;28;20039;-70
2023/05/31 00:52:36;;;;;;;4.90;4.00;;;;;;;14.47;78.40;94863.09;5016718;28;20393;-70
2023/05/31 00:55:02;;;;;;;8.65;5.15;;;;;;;14.37;78.28;94862.31;5029910;28;20025;-70
2023/05/31 00:57:28;;;;;;;6.55;4.40;;;;;;;14.39;78.50;94857.78;5043437;28;20028;-71
2023/05/31 00:59:53;;;;;;;5.50;4.53;;;;;;;14.52;78.33;94868.72;5034959;28;20036;-70
2023/05/31 01:02:18;;;;;;;6.57;4.40;;;;;;;14.64;78.23;94867.50;5050702;28;20030;-70
2023/05/31 01:04:44;;;;;;;6.80;4.43;;;;;;;14.50;78.38;94868.00;5051083;28;20040;-70
2023/05/31 01:07:09;;;;;;;9.23;4.30;;;;;;;14.43;78.66;94864.34;5051506;28;20561;-70
2023/05/31 01:09:36;;;;;;;5.38;4.32;;;;;;;14.19;79.37;94870.97;5030834;28;20021;-70
2023/05/31 01:12:29;;;;;;;5.03;4.43;;;;;;;14.38;78.42;94871.84;5033398;28;20465;-70
2023/05/31 01:15:11;;;;;;;5.70;4.45;;;;;;;14.29;79.16;94868.28;5052561;28;20033;-70
2023/05/31 01:18:03;;;;;;;5.20;4.35;;;;;;;14.34;79.39;94868.66;5049519;28;20170;-70
2023/05/31 01:20:35;;;;;;;7.43;4.45;;;;;;;14.33;78.87;94874.06;5043055;28;20114;-70
2023/05/31 01:23:21;;;;;;;7.53;5.35;;;;;;;14.29;79.13;94869.13;5051103;28;20086;-70
2023/05/31 01:25:57;;;;;;;5.53;4.60;;;;;;;14.40;79.48;94870.72;5034020;28;20037;-70
2023/05/31 01:28:24;;;;;;;9.02;4.50;;;;;;;14.41;79.32;94855.84;5030719;28;20033;-70
2023/05/31 01:30:50;;;;;;;7.43;4.50;;;;;;;14.46;79.40;94856.22;5030506;28;20036;-70
2023/05/31 01:33:15;;;;;;;5.30;4.43;;;;;;;14.40;78.92;94848.97;5014432;28;20037;-70
2023/05/31 01:35:41;;;;;;;6.82;4.40;;;;;;;14.55;79.05;94862.38;5016004;28;20037;-70
2023/05/31 01:38:06;;;;;;;8.27;4.68;;;;;;;14.51;79.29;94872.25;5049769;28;20078;-70
2023/05/31 01:40:32;;;;;;;5.22;4.45;;;;;;;14.51;79.83;94870.50;5052091;28;20029;-70
2023/05/31 01:42:57;;;;;;;5.20;4.40;;;;;;;14.46;79.45;94869.28;5050681;28;20033;-70
2023/05/31 01:45:23;;;;;;;7.03;4.60;;;;;;;14.53;79.26;94870.34;5030510;28;20519;-70
2023/05/31 01:47:48;;;;;;;9.13;5.00;;;;;;;14.62;79.04;94864.22;4997788;28;20022;-70
2023/05/31 01:50:14;;;;;;;5.65;4.45;;;;;;;14.60;79.14;94860.09;5014256;28;20044;-70
2023/05/31 01:52:40;;;;;;;6.20;4.63;;;;;;;14.53;79.31;94863.31;5014256;28;20423;-70
2023/05/31 01:55:06;;;;;;;6.30;4.57;;;;;;;14.53;79.13;94859.91;5015155;28;20492;-70
2023/05/31 01:57:31;;;;;;;5.50;4.30;;;;;;;14.63;78.32;94860.66;4997693;28;20041;-70
2023/05/31 01:59:58;;;;;;;5.18;4.32;;;;;;;14.65;78.16;94858.69;4997631;28;20392;-70
2023/05/31 02:02:24;;;;;;;5.55;4.35;;;;;;;14.65;77.95;94868.31;5015886;28;20069;-70
2023/05/31 02:04:50;;;;;;;6.30;4.28;;;;;;;14.57;78.34;94848.19;4997702;28;20032;-70
2023/05/31 02:07:16;;;;;;;6.53;4.60;;;;;;;14.72;78.15;94866.78;5038707;28;20514;-70
2023/05/31 02:09:41;;;;;;;5.60;4.30;;;;;;;14.65;77.60;94868.31;5047630;28;20036;-70
2023/05/31 02:12:07;;;;;;;7.10;4.35;;;;;;;14.62;77.75;94868.63;5033493;28;20037;-70
2023/05/31 02:14:33;;;;;;;6.47;4.13;;;;;;;14.81;77.35;94875.50;5033591;28;20444;-71
2023/05/31 02:16:58;;;;;;;5.35;4.57;;;;;;;14.86;77.08;94868.03;5047987;28;20537;-70
2023/05/31 02:19:25;;;;;;;7.03;4.20;;;;;;;14.80;77.25;94856.38;5051317;28;20514;-70
2023/05/31 02:21:51;;;;;;;5.95;4.32;;;;;;;14.79;76.66;94874.81;5050700;28;20067;-70
2023/05/31 02:24:17;;;;;;;4.80;4.30;;;;;;;14.87;76.31;94867.84;5047350;28;20040;-70
2023/05/31 02:26:42;;;;;;;7.00;4.22;;;;;;;14.89;76.88;94876.38;5033517;28;20032;-70
2023/05/31 02:29:09;;;;;;;5.20;4.43;;;;;;;14.82;76.53;94875.34;5049845;28;20037;-70
2023/05/31 02:31:34;;;;;;;5.20;4.70;;;;;;;14.88;75.72;94868.69;5038897;28;20029;-70
2023/05/31 02:34:00;;;;;;;5.82;4.18;;;;;;;14.98;76.61;94872.03;5030237;28;20385;-70
2023/05/31 02:36:28;;;;;;;5.45;4.28;;;;;;;14.87;77.01;94864.41;5031298;28;20381;-70
2023/05/31 02:38:53;;;;;;;6.22;4.35;;;;;;;14.85;76.25;94868.97;5045661;28;20040;-70
2023/05/31 02:41:19;;;;;;;5.72;4.72;;;;;;;15.00;75.92;94877.13;5013841;28;20037;-70
2023/05/31 02:43:44;;;;;;;7.40;4.20;;;;;;;14.93;75.73;94880.34;5013608;28;20036;-70
2023/05/31 02:46:10;;;;;;;4.90;4.40;;;;;;;14.96;75.76;94858.31;5032213;28;20033;-70
2023/05/31 02:48:35;;;;;;;8.65;4.18;;;;;;;14.89;76.02;94878.19;5013125;28;20423;-70
2023/05/31 02:51:01;;;;;;;6.15;4.30;;;;;;;15.03;75.72;94869.78;5029773;28;20106;-70
2023/05/31 02:53:26;;;;;;;5.13;4.05;;;;;;;15.10;75.76;94872.59;5022743;28;20059;-70
2023/05/31 02:55:52;;;;;;;6.13;4.65;;;;;;;15.14;75.33;94874.75;5048092;28;20037;-70
2023/05/31 02:58:18;;;;;;;9.32;4.60;;;;;;;15.02;75.77;94876.00;5049765;28;20032;-70
2023/05/31 03:00:44;;;;;;;4.30;3.90;;;;;;;14.95;76.07;94869.72;5032865;28;20048;-70
2023/05/31 03:03:10;;;;;;;6.05;4.32;;;;;;;14.96;76.61;94876.59;5032742;28;20450;-70
2023/05/31 03:05:36;;;;;;;7.82;4.50;;;;;;;14.86;77.15;94891.56;5028697;28;20037;-70
2023/05/31 03:08:01;;;;;;;6.68;4.40;;;;;;;14.88;76.93;94876.53;4999472;28;20034;-70
2023/05/31 03:10:27;;;;;;;7.43;4.70;;;;;;;14.94;76.56;94883.78;5030638;28;20128;-70
2023/05/31 03:12:52;;;;;;;6.88;4.25;;;;;;;14.86;76.70;94881.09;5030361;28;20021;-70
2023/05/31 03:15:18;;;;;;;6.07;4.20;;;;;;;14.82;76.15;94882.34;5012977;28;20025;-70
2023/05/31 03:17:43;;;;;;;5.20;4.28;;;;;;;14.84;75.78;94885.66;5013014;28;20029;-70
2023/05/31 03:20:09;;;;;;;5.75;4.20;;;;;;;14.85;75.76;94882.91;5029387;28;20033;-70
2023/05/31 03:22:35;;;;;;;6.35;4.50;;;;;;;15.08;75.70;94880.59;5029525;28;20446;-70
2023/05/31 03:25:01;;;;;;;6.45;5.40;;;;;;;14.97;76.30;94884.28;5019936;28;20041;-71
2023/05/31 03:27:27;;;;;;;8.50;4.80;;;;;;;14.96;76.10;94889.69;5029238;28;20435;-70
2023/05/31 03:29:52;;;;;;;5.57;4.97;;;;;;;14.90;76.06;94887.66;5032337;28;20083;-70
2023/05/31 03:32:18;;;;;;;5.72;5.13;;;;;;;15.07;75.74;94897.28;5048896;28;20449;-70
2023/05/31 03:34:43;;;;;;;7.28;4.57;;;;;;;14.77;77.89;94908.16;5043670;28;20026;-70
2023/05/31 03:37:08;;;;;;;5.65;4.70;;;;;;;14.61;78.50;94898.38;5030435;28;20034;-70
2023/05/31 03:39:34;;;;;;;8.38;5.20;;;;;;;14.65;78.01;94892.66;5030479;28;20052;-70
2023/05/31 03:42:00;;;;;;;5.82;4.53;;;;;;;14.67;77.17;94888.13;5029109;28;20033;-70
2023/05/31 03:44:26;;;;;;;6.65;4.35;;;;;;;14.71;76.65;94888.66;4996303;28;20044;-70
2023/05/31 03:46:51;;;;;;;4.95;4.30;;;;;;;14.66;76.86;94902.19;5025539;28;20057;-70
2023/05/31 03:49:17;;;;;;;8.10;4.43;;;;;;;14.60;78.24;94896.72;5045584;28;20092;-70
2023/05/31 03:51:42;;;;;;;5.93;4.22;;;;;;;14.57;78.98;94903.09;5012763;28;20044;-70
2023/05/31 03:54:08;;;;;;;5.93;4.50;;;;;;;14.59;79.10;94900.31;5050820;28;20032;-70
2023/05/31 03:56:33;;;;;;;8.75;4.50;;;;;;;14.85;77.07;94908.19;5051014;28;20049;-70
2023/05/31 03:58:59;;;;;;;6.38;4.75;;;;;;;14.80;77.49;94913.09;5043085;28;20033;-70
2023/05/31 04:01:24;;;;;;;6.20;4.43;;;;;;;14.80;78.13;94902.63;5047422;28;20033;-70
2023/05/31 04:03:50;;;;;;;6.43;4.70;;;;;;;14.91;78.49;94912.84;5033049;28;20484;-70
2023/05/31 04:06:15;;;;;;;5.00;4.50;;;;;;;15.08;78.04;94905.97;5017204;28;20767;-70
2023/05/31 04:08:40;;;;;;;4.78;4.18;;;;;;;15.24;77.48;94900.00;5032455;28;20503;-70
2023/05/31 04:11:06;;;;;;;8.57;4.40;;;;;;;15.11;77.94;94903.84;5034024;28;20416;-70
2023/05/31 04:13:31;;;;;;;6.25;4.50;;;;;;;15.13;77.56;94899.28;5017134;28;20504;-70
2023/05/31 04:15:57;;;;;;;4.95;4.00;;;;;;;15.22;78.09;94901.97;5032499;28;20557;-70
2023/05/31 04:18:22;;;;;;;4.57;4.10;;;;;;;15.50;77.89;94890.34;5033643;28;20555;-70
2023/05/31 04:20:48;;;;;;;7.68;4.35;;;;;;;15.41;77.79;94902.59;5033516;28;20036;-70
2023/05/31 04:23:14;;;;;;;14.48;9.63;;;;;;;15.31;77.43;94912.31;5015848;28;20036;-70
2023/05/31 04:25:39;;;;;;;15.95;9.43;;;;;;;15.33;76.82;94912.19;5016827;28;20040;-70
2023/05/31 04:28:05;;;;;;;13.18;8.18;;;;;;;15.26;76.74;94906.72;5015341;28;20080;-71
2023/05/31 04:30:31;;;;;;;9.40;7.70;;;;;;;15.27;76.47;94913.63;5031844;28;20439;-70
2023/05/31 04:32:57;;;;;;;9.45;6.30;;;;;;;15.36;75.94;94914.50;5027776;28;20530;-70
2023/05/31 04:35:22;;;;;;;9.02;5.90;;;;;;;15.69;76.15;94920.78;5044641;28;20033;-70
2023/05/31 04:37:52;;;;;;;8.23;5.63;;;;;;;15.82;75.87;94917.72;5033048;28;20136;-70
2023/05/31 04:40:19;;;;;;;8.38;5.72;;;;;;;15.64;75.46;94907.28;5032939;28;20077;-70
2023/05/31 04:42:45;;;;;;;10.70;6.78;;;;;;;15.56;75.72;94929.00;5033180;28;20083;-70
2023/05/31 04:45:10;;;;;;;9.98;7.20;;;;;;;15.59;75.79;94926.06;5039641;28;20017;-70
2023/05/31 04:47:36;;;;;;;12.93;7.30;;;;;;;15.71;75.67;94928.44;5029134;28;20037;-70
2023/05/31 04:50:01;;;;;;;10.80;6.75;;;;;;;15.80;75.27;94932.78;5023857;28;20030;-70
2023/05/31 04:52:29;;;;;;;9.63;6.95;;;;;;;15.79;75.20;94925.88;5030951;28;20084;-70
2023/05/31 04:54:54;;;;;;;9.75;6.03;;;;;;;15.97;75.17;94933.69;5003085;28;20506;-70
2023/05/31 04:57:20;;;;;;;8.13;6.15;;;;;;;16.20;74.35;94934.75;5038942;28;20113;-70
2023/05/31 04:59:46;;;;;;;8.35;6.50;;;;;;;16.15;73.81;94923.09;5035143;28;20044;-70
2023/05/31 05:02:11;;;;;;;7.78;5.72;;;;;;;16.33;72.51;94921.19;5024320;28;20033;-70
2023/05/31 05:04:37;;;;;;;6.43;5.40;;;;;;;16.59;71.40;94936.81;5041046;28;20120;-70
2023/05/31 05:07:02;;;;;;;6.38;5.50;;;;;;;16.58;70.98;94937.00;5040362;28;20041;-70
2023/05/31 05:09:28;;;;;;;8.80;6.07;;;;;;;16.56;71.37;94936.31;5043224;28;20020;-73
2023/05/31 05:11:55;;;;;;;8.25;5.70;;;;;;;16.56;71.55;94944.19;5041987;28;20034;-74
2023/05/31 05:14:21;;;;;;;7.47;5.70;;;;;;;16.65;70.83;94948.47;5040093;28;20044;-74
2023/05/31 05:16:46;;;;;;;7.25;6.00;;;;;;;16.59;70.77;94946.50;5025829;28;20033;-74
2023/05/31 05:19:12;;;;;;;12.25;5.95;;;;;;;16.40;71.53;94945.78;5025289;28;20091;-73
2023/05/31 05:21:37;;;;;;;7.72;5.85;;;;;;;16.41;71.89;94946.59;5042214;28;20044;-73
2023/05/31 05:24:03;;;;;;;6.88;5.55;;;;;;;16.46;71.77;94958.25;5036105;28;20029;-74
2023/05/31 05:26:28;;;;;;;10.07;6.50;;;;;;;16.42;71.79;94964.78;5037224;28;20044;-73
2023/05/31 05:28:53;;;;;;;8.48;5.70;;;;;;;16.53;71.11;94961.06;5036090;28;20033;-73
2023/05/31 05:31:19;;;;;;;8.23;6.22;;;;;;;16.86;70.56;94967.22;5051169;28;20033;-73
2023/05/31 05:33:45;;;;;;;8.73;6.00;;;;;;;16.86;70.07;94959.34;5040003;28;20040;-73
2023/05/31 05:36:10;;;;;;;9.18;6.10;;;;;;;16.77;70.84;94962.13;5016426;28;20025;-73
2023/05/31 05:38:36;;;;;;;8.50;6.45;;;;;;;16.67;71.41;94964.88;5014924;28;20040;-74
2023/05/31 05:41:01;;;;;;;10.30;6.45;;;;;;;16.82;71.09;94972.94;5050613;28;20033;-73
2023/05/31 05:43:28;;;;;;;8.98;6.65;;;;;;;16.82;70.90;94960.66;5034115;28;20029;-74
2023/05/31 05:45:54;;;;;;;6.85;5.88;;;;;;;16.88;71.14;94967.91;5028120;28;20061;-73
2023/05/31 05:48:19;;;;;;;7.60;6.15;;;;;;;16.93;70.89;94959.53;5028790;28;20396;-74
2023/05/31 05:50:45;;;;;;;7.53;5.93;;;;;;;17.06;70.66;94973.00;5047692;28;20040;-74
2023/05/31 05:53:10;;;;;;;7.30;5.80;;;;;;;17.06;70.64;94973.00;5039750;28;20589;-74
2023/05/31 05:55:36;;;;;;;13.32;5.90;;;;;;;17.19;69.62;94986.47;5045874;28;20566;-74
2023/05/31 05:58:02;;;;;;;9.93;5.70;;;;;;;17.03;70.62;94975.13;5051562;28;20039;-73
2023/05/31 06:00:28;;;;;;;7.28;6.10;;;;;;;17.02;71.08;94976.09;5031832;28;20380;-73
2023/05/31 06:02:53;;;;;;;7.15;5.50;;;;;;;17.20;69.19;94963.66;5021126;28;20025;-73
2023/05/31 06:05:25;;;;;;;6.13;5.35;;;;;;;17.08;70.47;94980.72;5020570;28;20048;-73
2023/05/31 06:07:51;;;;;;;6.50;5.63;;;;;;;17.13;70.25;94973.16;5031403;28;20193;-74
2023/05/31 06:10:17;;;;;;;7.53;5.72;;;;;;;17.19;69.88;94980.38;5035449;28;20044;-74
2023/05/31 06:12:42;;;;;;;6.47;5.13;;;;;;;17.36;68.50;94968.09;5042683;28;20025;-73
2023/05/31 06:15:08;;;;;;;5.22;4.72;;;;;;;17.16;69.07;94978.06;5043161;28;21320;-73
2023/05/31 06:17:34;;;;;;;9.82;5.80;;;;;;;17.10;69.73;94976.09;5040090;28;20083;-74
2023/05/31 06:20:00;;;;;;;6.88;5.25;;;;;;;17.15;69.26;94968.56;5042086;28;20029;-73
2023/05/31 06:22:26;;;;;;;5.50;4.90;;;;;;;17.31;69.99;94980.88;5030117;28;20037;-74
2023/05/31 06:24:51;;;;;;;6.00;4.90;;;;;;;17.27;69.00;94969.88;5024110;28;20025;-74
2023/05/31 06:27:17;;;;;;;7.18;4.93;;;;;;;17.58;67.36;94950.84;5022426;28;20543;-73
2023/05/31 06:29:42;;;;;;;5.53;4.82;;;;;;;17.47;67.74;94980.03;5040351;28;20033;-73
2023/05/31 06:32:08;;;;;;;5.55;4.78;;;;;;;17.40;68.37;94975.44;5037074;28;20407;-72
2023/05/31 06:34:33;;;;;;;6.38;4.97;;;;;;;17.40;68.90;94970.19;5030302;28;20040;-72
2023/05/31 06:37:00;;;;;;;5.80;4.75;;;;;;;17.39;68.76;94979.06;5033210;28;20447;-72
2023/05/31 06:39:25;;;;;;;6.25;5.38;;;;;;;17.53;68.90;94985.47;5029573;28;20112;-72
2023/05/31 06:41:51;;;;;;;6.55;5.10;;;;;;;17.83;67.81;94991.88;5031353;28;20112;-72
2023/05/31 06:44:16;;;;;;;6.32;5.05;;;;;;;18.08;66.67;94978.66;5029762;28;20029;-72
2023/05/31 06:46:42;;;;;;;6.25;5.00;;;;;;;18.02;67.19;94971.44;5031311;28;20030;-72
2023/05/31 06:49:07;;;;;;;5.93;5.13;;;;;;;18.25;65.74;94971.53;5028277;28;20036;-72
2023/05/31 06:51:32;;;;;;;11.38;5.70;;;;;;;18.34;65.94;94973.13;5011142;28;20034;-72
2023/05/31 06:54:00;;;;;;;7.15;5.40;;;;;;;18.28;66.33;94973.81;5028912;28;20033;-72
2023/05/31 06:56:27;;;;;;;7.68;5.60;;;;;;;18.59;64.92;94980.94;5028288;28;20057;-72
2023/05/31 06:58:52;;;;;;;7.65;5.55;;;;;;;18.19;65.79;94964.31;5027403;28;20116;-72
2023/05/31 07:01:18;;;;;;;6.22;5.35;;;;;;;18.57;65.37;94980.28;5010643;28;20491;-72
2023/05/31 07:03:44;;;;;;;8.95;5.10;;;;;;;18.48;65.55;94968.97;5011679;28;20026;-72
2023/05/31 07:06:09;;;;;;;6.70;5.30;;;;;;;18.57;64.20;94975.81;5030732;28;20048;-72
2023/05/31 07:08:35;;;;;;;11.07;4.78;;;;;;;18.45;65.16;94977.22;5029455;28;20036;-72
2023/05/31 07:11:01;;;;;;;8.20;5.50;;;;;;;18.45;65.19;94969.31;5012904;28;20049;-72
2023/05/31 07:13:26;;;;;;;8.80;5.15;;;;;;;18.39;65.19;94970.00;5030682;28;20506;-72
2023/05/31 07:15:52;;;;;;;6.15;5.00;;;;;;;18.42;65.61;94965.22;5029541;28;20059;-72
2023/05/31 07:18:17;;;;;;;6.82;4.60;;;;;;;18.67;64.35;94975.63;5012915;28;20029;-72
2023/05/31 07:20:43;;;;;;;9.10;4.63;;;;;;;19.04;63.52;94974.91;5029385;28;20040;-72
2023/05/31 07:23:09;;;;;;;7.15;4.47;;;;;;;19.09;63.16;94971.78;5030538;28;20057;-72
2023/05/31 07:25:34;;;;;;;6.43;4.90;;;;;;;19.11;62.52;94975.88;5030681;28;20064;-72
2023/05/31 07:28:00;;;;;;;7.72;4.72;;;;;;;19.46;61.38;94973.59;5012819;28;20446;-72
2023/05/31 07:30:25;;;;;;;6.13;4.50;;;;;;;19.48;61.08;94981.34;5034644;28;20030;-72
2023/05/31 07:32:51;;;;;;;7.75;4.90;;;;;;;19.43;62.24;94976.59;5033289;28;20087;-72
2023/05/31 07:35:16;;;;;;;6.53;4.75;;;;;;;19.52;61.96;94978.16;5034504;28;20231;-72
2023/05/31 07:37:42;;;;;;;8.73;4.72;;;;;;;19.67;61.34;94972.97;5034385;28;20037;-72
2023/05/31 07:40:08;;;;;;;7.22;5.45;;;;;;;19.58;60.95;94963.47;5033199;28;20048;-72
2023/05/31 07:42:33;;;;;;;7.18;5.25;;;;;;;19.94;59.28;94974.16;5033096;28;20029;-72
2023/05/31 07:44:59;;;;;;;8.05;5.30;;;;;;;20.17;59.76;94965.34;5034299;28;20029;-72
2023/05/31 07:47:24;;;;;;;6.55;4.93;;;;;;;19.82;62.13;94973.81;5016559;28;20113;-72
2023/05/31 07:49:51;;;;;;;9.30;5.05;;;;;;;19.79;60.82;94957.53;5016503;28;20502;-72
2023/05/31 07:52:21;;;;;;;9.38;5.50;;;;;;;19.76;60.75;94968.44;5016691;28;20095;-72
2023/05/31 07:54:47;;;;;;;5.90;4.97;;;;;;;19.99;60.65;94968.38;5017173;28;20108;-72
2023/05/31 07:57:13;;;;;;;7.40;4.63;;;;;;;20.00;59.54;94959.44;5016462;28;20069;-72
2023/05/31 07:59:38;;;;;;;6.78;4.68;;;;;;;19.78;60.66;94959.34;5032832;28;20036;-72
2023/05/31 08:02:04;;;;;;;7.05;4.90;;;;;;;19.73;60.21;94956.44;5016334;28;20029;-72
2023/05/31 08:04:30;;;;;;;6.10;5.13;;;;;;;19.99;60.67;94963.09;5032774;28;20036;-72
2023/05/31 08:06:55;;;;;;;6.65;5.20;;;;;;;20.08;60.36;94962.00;5016300;28;20033;-72
2023/05/31 08:09:21;;;;;;;6.28;4.75;;;;;;;19.88;60.45;94927.44;5033798;28;20125;-72
2023/05/31 08:11:46;;;;;;;5.93;4.78;;;;;;;20.21;60.77;94948.19;5033961;28;20081;-72
2023/05/31 08:14:12;;;;;;;7.55;5.43;;;;;;;19.92;61.93;94960.38;5016007;28;20021;-72
2023/05/31 08:16:39;;;;;;;5.43;4.60;;;;;;;20.13;60.67;94953.53;5032680;28;20343;-71
2023/05/31 08:19:05;;;;;;;8.75;5.03;;;;;;;20.20;60.18;94955.28;5032476;28;20567;-71
2023/05/31 08:21:31;;;;;;;7.10;4.70;;;;;;;20.29;60.03;94940.97;5032465;28;20108;-72
2023/05/31 08:23:57;;;;;;;8.20;4.93;;;;;;;20.69;59.59;94951.22;5033612;28;20037;-72
2023/05/31 08:26:23;;;;;;;6.47;4.80;;;;;;;20.83;58.69;94923.16;5032484;28;20041;-72
2023/05/31 08:28:49;;;;;;;6.28;4.97;;;;;;;21.06;58.20;94941.44;5032203;28;20477;-71
2023/05/31 08:31:14;;;;;;;11.60;4.60;;;;;;;21.04;59.35;94954.03;5032315;28;20091;-72
2023/05/31 08:33:51;;;;;;;6.65;4.80;;;;;;;20.80;58.55;94921.69;5032224;28;20025;-72
2023/05/31 08:36:17;;;;;;;5.90;4.40;;;;;;;20.91;58.03;94947.59;5031179;28;20511;-72
2023/05/31 08:38:42;;;;;;;5.53;4.45;;;;;;;20.90;56.64;94934.59;5015598;28;20250;-72
2023/05/31 08:41:08;;;;;;;6.68;4.82;;;;;;;20.79;56.97;94951.75;5031769;28;20037;-72
2023/05/31 08:43:34;;;;;;;4.88;4.22;;;;;;;20.52;58.78;94948.75;5032019;28;20415;-72
2023/05/31 08:46:01;;;;;;;5.63;4.10;;;;;;;20.61;57.54;94946.06;5015614;28;20052;-72
2023/05/31 08:48:30;;;;;;;6.30;4.35;;;;;;;20.83;58.24;94950.34;5031802;28;20416;-72
2023/05/31 08:50:56;;;;;;;6.18;4.45;;;;;;;20.65;58.17;94945.50;5015733;28;20038;-71
2023/05/31 08:53:23;;;;;;;5.65;4.63;;;;;;;20.56;59.82;94941.34;5031817;28;20025;-72
2023/05/31 08:55:50;;;;;;;5.30;4.35;;;;;;;20.35;59.92;94923.59;5015446;28;20037;-72
2023/05/31 08:58:15;;;;;;;5.78;4.35;;;;;;;20.40;59.53;94934.44;4999292;28;20450;-72
2023/05/31 09:00:41;;;;;;;7.90;4.70;;;;;;;20.32;59.34;94923.97;4998834;28;20033;-72
2023/05/31 09:03:07;;;;;;;7.90;4.30;;;;;;;20.28;60.69;94933.25;5031592;28;20465;-72
2023/05/31 09:05:32;;;;;;;10.05;4.47;;;;;;;19.48;62.52;94939.19;5032903;28;20035;-72
2023/05/31 09:07:59;;;;;;;5.10;4.30;;;;;;;19.59;62.37;94930.84;4998581;28;20410;-72
2023/05/31 09:10:24;;;;;;;7.03;4.65;;;;;;;19.48;63.39;94929.47;5014855;28;20060;-72
2023/05/31 09:12:50;;;;;;;6.80;4.47;;;;;;;19.76;63.61;94931.53;5014812;28;20026;-71
2023/05/31 09:15:15;;;;;;;5.10;4.43;;;;;;;19.78;63.04;94911.06;5032611;28;20045;-72
2023/05/31 09:17:45;;;;;;;6.07;5.35;;;;;;;19.60;63.54;94911.41;4998553;28;20026;-71
2023/05/31 09:20:11;;;;;;;6.13;4.60;;;;;;;19.73;62.72;94921.38;4998631;28;20022;-72
2023/05/31 09:22:40;;;;;;;6.05;4.45;;;;;;;19.59;63.73;94918.50;5014933;28;20029;-72
2023/05/31 09:25:06;;;;;;;5.95;4.90;;;;;;;19.39;65.65;94906.84;5015113;28;20033;-72
2023/05/31 09:27:39;;;;;;;7.45;5.38;;;;;;;19.37;66.37;94901.75;5031150;28;20109;-72
2023/05/31 09:30:09;;;;;;;7.50;5.32;;;;;;;19.34;68.47;94910.00;5014677;28;20029;-72
2023/05/31 09:32:38;;;;;;;8.68;6.00;;;;;;;19.30;69.35;94910.53;5031138;28;20459;-72
2023/05/31 09:35:14;;;;;;;7.68;5.43;;;;;;;19.32;70.94;94905.91;5014903;28;20036;-72
2023/05/31 09:37:44;;;;;;;7.07;5.80;;;;;;;19.35;70.84;94905.56;5030954;28;20514;-72
2023/05/31 09:40:12;;;;;;;7.00;5.20;;;;;;;19.23;71.79;94894.66;4998172;28;20035;-72
2023/05/31 09:42:37;;;;;;;7.63;5.55;;;;;;;19.38;70.98;94887.56;5014605;28;20064;-72
2023/05/31 09:45:04;;;;;;;8.70;6.10;;;;;;;19.18;72.00;94903.06;5031960;28;20021;-72
2023/05/31 09:47:29;;;;;;;9.35;6.25;;;;;;;19.15;72.76;94899.97;5030721;28;20029;-72
2023/05/31 09:49:54;;;;;;;7.72;5.70;;;;;;;19.11;72.59;94891.63;5014341;28;20029;-72
2023/05/31 09:52:26;;;;;;;8.55;6.15;;;;;;;19.25;72.02;94891.81;5013557;28;20091;-72
2023/05/31 09:54:51;;;;;;;9.70;6.10;;;;;;;19.46;71.87;94897.22;5030708;28;20533;-72
2023/05/31 09:57:39;;;;;;;7.80;6.07;;;;;;;19.31;71.26;94880.59;5030698;28;20041;-72
2023/05/31 10:00:17;;;;;;;7.63;6.05;;;;;;;19.63;70.48;94885.50;5030664;28;20021;-72
2023/05/31 10:02:51;;;;;;;6.75;5.90;;;;;;;19.58;72.43;94898.41;5030592;28;20026;-72
2023/05/31 10:05:16;;;;;;;6.97;5.13;;;;;;;19.64;70.76;94889.81;5014167;28;20515;-72
2023/05/31 10:07:42;;;;;;;5.47;4.75;;;;;;;19.63;68.25;94892.59;5030325;28;20021;-72
2023/05/31 10:10:08;;;;;;;9.60;5.60;;;;;;;19.68;68.84;94890.28;5030156;28;20045;-72
2023/05/31 10:12:45;;;;;;;5.50;4.47;;;;;;;19.59;66.27;94880.81;5030259;28;20049;-72
2023/05/31 10:15:12;;;;;;;6.80;5.25;;;;;;;19.54;67.65;94891.88;5014612;28;20127;-72
2023/05/31 10:17:40;;;;;;;6.38;4.95;;;;;;;19.58;69.04;94885.22;5030259;28;20033;-72
2023/05/31 10:20:09;;;;;;;10.98;4.95;;;;;;;19.66;66.13;94888.81;5013970;28;20112;-72
2023/05/31 10:22:36;;;;;;;6.20;4.40;;;;;;;19.49;65.37;94883.69;5030159;28;20029;-72
2023/05/31 10:25:07;;;;;;;7.55;4.25;;;;;;;19.47;65.54;94893.56;5029996;28;20064;-72
2023/05/31 10:27:39;;;;;;;5.20;4.35;;;;;;;19.71;65.25;94886.47;5029984;28;20045;-72
2023/05/31 10:30:05;;;;;;;5.72;4.50;;;;;;;19.43;64.61;94889.69;5013577;28;20036;-72
2023/05/31 10:32:45;;;;;;;5.60;4.57;;;;;;;19.41;68.14;94874.03;5013704;28;20053;-72
2023/05/31 10:35:11;;;;;;;6.60;4.80;;;;;;;19.50;69.00;94869.53;5030068;28;20037;-72
2023/05/31 10:37:42;;;;;;;5.82;4.28;;;;;;;19.47;67.76;94867.22;5029918;28;20034;-72
2023/05/31 10:40:15;;;;;;;6.90;4.72;;;;;;;19.73;74.32;94863.41;5013817;28;20037;-73
2023/05/31 10:43:14;;;;;;;5.68;4.50;;;;;;;19.85;71.34;94873.28;5014005;28;20026;-73
2023/05/31 10:45:42;;;;;;;6.65;4.70;;;;;;;19.67;73.41;94866.72;5031872;28;20033;-73
2023/05/31 10:48:45;;;;;;;5.47;4.13;;;;;;;19.70;68.30;94855.84;5014112;28;20041;-73
2023/05/31 10:51:12;;;;;;;3.83;3.38;;;;;;;19.82;67.59;94855.19;5031996;28;20084;-73
2023/05/31 10:53:38;;;;;;;4.95;3.53;;;;;;;19.83;64.27;94848.09;5031477;28;20033;-73
2023/05/31 10:56:04;;;;;;;6.55;4.10;;;;;;;20.13;65.92;94850.72;5013538;28;20037;-73
2023/05/31 10:58:52;;;;;;;4.60;3.28;;;;;;;20.24;60.09;94851.03;5030008;28;20037;-73
2023/05/31 11:01:20;;;;;;;3.95;3.03;;;;;;;20.37;57.82;94850.38;5030076;28;20033;-72
2023/05/31 11:03:50;;;;;;;3.60;2.80;;;;;;;20.42;56.28;94853.28;5031206;28;20026;-72
2023/05/31 11:06:19;;;;;;;4.35;3.35;;;;;;;20.57;57.78;94844.53;5013959;28;20048;-73
2023/05/31 11:09:10;;;;;;;5.10;3.03;;;;;;;20.71;56.42;94841.00;5031205;28;20458;-72
2023/05/31 11:11:39;;;;;;;5.18;3.45;;;;;;;20.57;60.50;94829.50;5013756;28;20467;-72
2023/05/31 11:14:08;;;;;;;6.22;3.75;;;;;;;20.82;60.71;94837.88;5030948;28;20487;-73
2023/05/31 11:16:55;;;;;;;4.70;3.78;;;;;;;21.25;56.38;94829.06;5013478;28;20060;-72
2023/05/31 11:19:25;;;;;;;5.25;3.60;;;;;;;21.35;55.33;94811.06;5029959;28;20606;-73
2023/05/31 11:21:52;;;;;;;4.32;3.42;;;;;;;21.53;54.71;94818.50;5014156;28;20041;-72
2023/05/31 11:24:31;;;;;;;5.32;3.58;;;;;;;21.45;54.33;94818.66;5029667;28;20037;-72
2023/05/31 11:26:58;;;;;;;3.95;3.38;;;;;;;21.86;51.00;94816.84;5013431;28;20060;-72
2023/05/31 11:29:23;;;;;;;4.90;3.33;;;;;;;21.95;54.02;94811.38;4997003;28;20124;-72
2023/05/31 11:31:54;;;;;;;5.28;3.38;;;;;;;21.87;54.05;94820.31;4997059;28;20041;-72
2023/05/31 11:34:26;;;;;;;5.95;3.78;;;;;;;22.09;54.22;94815.69;5031065;28;20415;-72